Flight Track Log - Related Links

Times and Time Zones

All times are in EDT time to prevent confusion due to time zone crossing. See the N989AS flight status page for this flight to view local times or setup timezone preferences in your user account.

Time Position Orientation Groundspeed Altitude Reporting Facility
EDT Latitude Longitude Course Direction KTS MPH feet Rate Location/Type
Sat 03:04:05 PM 45.7528 -84.7108 168° South 75 86 3,600  Level Minneapolis Center
Sat 03:05:06 PM 45.7303 -84.7183 193° South 83 96 4,100 537 Climbing Minneapolis Center
Sat 03:06:08 PM 45.7033 -84.7086 166° South 94 108 4,700 435 Climbing Minneapolis Center
Sat 03:07:00 PM 45.6337 -84.5622 170° South  Level Estimated
Sat 03:07:10 PM 45.6797 -84.6939 156° South 95 109 5,000  Level Minneapolis Center
Sat 03:08:00 PM 45.5951 -84.5498 168° South  Level Estimated
Sat 03:08:11 PM 45.6442 -84.6761 161° South 126 145 5,000  Level Minneapolis Center
Sat 03:09:00 PM 45.5589 -84.5389 168° South  Level FlightAware
Sat 03:09:13 PM 45.6089 -84.6639 166° South 131 151 5,000  Level Minneapolis Center
Sat 03:10:15 PM 45.5697 -84.6508 167° South 134 154 5,000  Level Minneapolis Center
Sat 03:11:16 PM 45.5331 -84.6375 166° South 137 158 5,000  Level Minneapolis Center
Sat 03:12:18 PM 45.4983 -84.6250 166° South 132 152 5,000  Level Minneapolis Center
Sat 03:13:20 PM 45.4597 -84.6103 165° South 133 153 5,000  Level Minneapolis Center
Sat 03:14:22 PM 45.4244 -84.5989 167° South 133 153 5,000  Level Minneapolis Center
Sat 03:15:23 PM 45.3853 -84.5867 168° South 135 155 5,000  Level Minneapolis Center
Sat 03:16:25 PM 45.3511 -84.5744 166° South 130 150 5,000  Level Minneapolis Center
Sat 03:17:27 PM 45.3133 -84.5617 167° South 129 148 5,000  Level Minneapolis Center
Sat 03:18:28 PM 45.2772 -84.5472 164° South 135 155 5,000  Level Minneapolis Center
Sat 03:19:30 PM 45.2394 -84.5344 167° South 132 152 5,000  Level Minneapolis Center
Sat 03:20:31 PM 45.2047 -84.5222 166° South 131 151 5,000 -49 Level Minneapolis Center
Sat 03:21:33 PM 45.1664 -84.5106 168° South 132 152 4,900  Descending Minneapolis Center
Sat 03:22:34 PM 45.1308 -84.4975 165° South 132 152 5,000 49 Climbing Minneapolis Center
Sat 03:23:36 PM 45.0933 -84.4831 165° South 132 152 5,000  Level Minneapolis Center
Sat 03:24:37 PM 45.0575 -84.4714 167° South 134 154 5,000  Level Minneapolis Center
Sat 03:25:39 PM 45.0228 -84.4592 166° South 131 151 5,000  Level Minneapolis Center
Sat 03:26:52 PM 44.9853 -84.4464 166° South 130 150 5,000  Level Minneapolis Center
Sat 03:27:54 PM 44.9408 -84.4311 166° South 133 153 5,000  Level Minneapolis Center
Sat 03:29:08 PM 44.8989 -84.4169 167° South 127 146 5,000  Level Minneapolis Center
Sat 03:30:10 PM 44.8642 -84.4047 166° South 130 150 5,000  Level Minneapolis Center
Sat 03:31:11 PM 44.8244 -84.3914 167° South 135 155 5,000  Level Minneapolis Center
Sat 03:32:13 PM 44.7878 -84.3772 165° South 138 159 5,000  Level Minneapolis Center
Sat 03:33:14 PM 44.7506 -84.3650 167° South 130 150 5,000  Level Minneapolis Center
Sat 03:34:16 PM 44.7136 -84.3531 167° South 136 157 5,000  Level Minneapolis Center
Sat 03:35:17 PM 44.6786 -84.3411 166° South 132 152 5,000  Level Minneapolis Center
Sat 03:36:19 PM 44.6403 -84.3281 166° South 133 153 5,000 -49 Level Minneapolis Center
Sat 03:37:20 PM 44.6106 -84.3197 169° South 131 151 4,900  Descending Minneapolis Center
Sat 03:38:22 PM 44.5669 -84.3033 165° South 132 152 5,000 49 Climbing Minneapolis Center
Sat 03:39:23 PM 44.5317 -84.2903 165° South 133 153 5,000 49 Level Minneapolis Center
Sat 03:40:25 PM 44.4928 -84.2775 167° South 134 154 5,100 49 Climbing Minneapolis Center
Sat 03:41:26 PM 44.4569 -84.2658 167° South 133 153 5,100  Level Minneapolis Center
Sat 03:42:28 PM 44.4164 -84.2533 168° South 138 159 5,100 -49 Level Minneapolis Center
Sat 03:43:29 PM 44.3819 -84.2406 165° South 132 152 5,000  Descending Minneapolis Center
Sat 03:44:31 PM 44.3467 -84.2289 167° South 132 152 5,100 49 Climbing Minneapolis Center
Sat 03:45:32 PM 44.3078 -84.2156 166° South 135 155 5,100  Level Minneapolis Center
Sat 03:46:34 PM 44.2722 -84.2036 166° South 133 153 5,100  Level Minneapolis Center
Sat 03:47:35 PM 44.2347 -84.1917 167° South 129 148 5,100  Level Minneapolis Center
Sat 03:48:49 PM 44.1906 -84.1769 167° South 132 152 5,100  Level Minneapolis Center
Sat 03:49:50 PM 44.1544 -84.1636 165° South 134 154 5,100  Level Minneapolis Center
Sat 03:50:52 PM 44.1194 -84.1519 167° South 132 152 5,100  Level Minneapolis Center
Sat 03:51:53 PM 44.0814 -84.1406 168° South 131 151 5,100  Level Minneapolis Center
Sat 03:52:55 PM 44.0447 -84.1281 166° South 135 155 5,100  Level Minneapolis Center
Sat 03:53:56 PM 44.0067 -84.1158 167° South 132 152 5,100  Level Minneapolis Center
Sat 03:54:58 PM 43.9775 -84.1047 165° South 132 152 5,100  Level Minneapolis Center
Sat 03:56:00 PM 43.9405 -84.0913 165° South  Level FlightAware
Sat 04:03:00 PM 43.6897 -84.0012 165° South  Level FlightAware
Sat 04:04:00 PM 43.6538 -83.9884 165° South  Level FlightAware
Sat 04:05:00 PM 43.6180 -83.9756 166° South  Level FlightAware
Sat 04:06:00 PM 43.5821 -83.9628 166° South  Level FlightAware
Sat 04:07:00 PM 43.5463 -83.9500 166° South  Level FlightAware
Sat 04:08:00 PM 43.5104 -83.9373 166° South  Level FlightAware
Sat 04:09:00 PM 43.4746 -83.9246 166° South  Level FlightAware
Sat 04:10:00 PM 43.4388 -83.9118 166° South  Level FlightAware
Sat 04:11:00 PM 43.4029 -83.8991 166° South  Level FlightAware
Sat 04:12:00 PM 43.3671 -83.8864 166° South  Level FlightAware
Sat 04:13:00 PM 43.3312 -83.8737 166° South  Level FlightAware
Sat 04:14:00 PM 43.2953 -83.8611 166° South  Level FlightAware
Sat 04:15:00 PM 43.2595 -83.8484 166° South  Level FlightAware
Sat 04:16:00 PM 43.2236 -83.8358 166° South  Level FlightAware
Sat 04:17:00 PM 43.1866 -83.8254 169° South  Level FlightAware
Sat 04:18:00 PM 43.1502 -83.8159 169° South  Level FlightAware
Sat 04:19:00 PM 43.1138 -83.8064 169° South  Level FlightAware
Sat 04:20:00 PM 43.0775 -83.7969 169° South  Level FlightAware
Sat 04:21:00 PM 43.0411 -83.7874 169° South  Level FlightAware
Sat 04:22:00 PM 43.0048 -83.7779 169° South  Level FlightAware
Sat 04:22:39 PM 42.9972 -83.7853 160° South 127 146 5,100  Level Cleveland Center
Sat 04:23:00 PM 42.9684 -83.7684 169° South  Level FlightAware
Sat 04:23:46 PM 42.9558 -83.7747 169° South 128 147 5,100  Level Cleveland Center
Sat 04:24:00 PM 42.9320 -83.7590 169° South  Level FlightAware
Sat 04:24:48 PM 42.9206 -83.7644 168° South 128 147 5,100  Level Cleveland Center
Sat 04:25:00 PM 42.8957 -83.7495 169° South  Level FlightAware
Sat 04:25:43 PM 42.8917 -83.7544 166° South 128 147 5,100  Level Cleveland Center
Sat 04:26:00 PM 42.8593 -83.7401 169° South  Level FlightAware
Sat 04:26:44 PM 42.8567 -83.7414 165° South 126 145 5,100  Level Cleveland Center
Sat 04:27:00 PM 42.8234 -83.7284 160° South  Level FlightAware
Sat 04:27:45 PM 42.8194 -83.7308 168° South 129 148 5,100  Level Cleveland Center
Sat 04:28:46 PM 42.7842 -83.7206 168° South 129 148 5,100  Level Cleveland Center
Sat 04:29:41 PM 42.7514 -83.7078 164° South 127 146 5,100  Level Cleveland Center
Sat 04:30:54 PM 42.7100 -83.6944 167° South 128 147 5,100  Level Cleveland Center
Sat 04:31:49 PM 42.6811 -83.6817 162° South 127 146 5,100  Level Cleveland Center
Sat 04:32:50 PM 42.6439 -83.6714 169° South 127 146 5,100  Level Cleveland Center
Sat 04:33:45 PM 42.6131 -83.6586 163° South 130 150 5,100 -207 Level Cleveland Center
Sat 04:34:46 PM 42.5778 -83.6483 168° South 135 155 4,700 -443 Descending Cleveland Center
Sat 04:35:47 PM 42.5364 -83.6322 164° South 143 165 4,200 -516 Descending Cleveland Center
Sat 04:36:54 PM 42.4972 -83.6192 166° South 140 161 3,600 -516 Descending Cleveland Center
Sat 04:37:55 PM 42.4600 -83.6061 165° South 128 147 3,100 -281 Descending Cleveland Center
Sat 04:39:02 PM 42.4272 -83.5819 151° Southeast 122 140 3,000 -47 Descending Cleveland Center
Sat 04:40:02 PM 42.3967 -83.5636 156° South 120 138 3,000 -209 Level Cleveland Center
Sat 04:40:57 PM 42.3678 -83.5425 152° Southeast 121 139 2,600 -295 Descending Cleveland Center
Sat 04:42:04 PM 42.3328 -83.5297 165° South 118 136 2,400 -234 Descending Cleveland Center
Sat 04:43:05 PM 42.3039 -83.5172 162° South 104 120 2,100 -393 Descending Cleveland Center
Sat 04:44:06 PM 42.2769 -83.5158 178° South 91 105 1,600 -517 Descending Cleveland Center
Sat 04:45:01 PM 42.2539 -83.5119 173° South 91 105 1,100 -545 Descending Cleveland Center

Login

Don't have an account? Register now (free) for customized features, flight alerts, and more!